createdAt,value
2023-04-11T00:00:39.264Z,100026.44
2023-04-11T00:03:07.424Z,100023.25
2023-04-11T00:05:34.898Z,100023.47
2023-04-11T00:08:02.369Z,100022.66
2023-04-11T00:10:29.568Z,100020.81
2023-04-11T00:12:57.525Z,100020.00
2023-04-11T00:15:27.031Z,100020.13
2023-04-11T00:17:57.965Z,100015.63
2023-04-11T00:20:25.420Z,100021.66
2023-04-11T00:22:54.294Z,100017.38
2023-04-11T00:25:21.809Z,100015.50
2023-04-11T00:27:49.025Z,100015.97
2023-04-11T00:30:16.849Z,100018.13
2023-04-11T00:32:46.736Z,100017.81
2023-04-11T00:35:16.126Z,100023.41
2023-04-11T00:37:44.468Z,100022.53
2023-04-11T00:40:13.204Z,100022.75
2023-04-11T00:42:40.992Z,100018.84
2023-04-11T00:45:09.317Z,100022.97
2023-04-11T00:47:36.938Z,100014.41
2023-04-11T00:50:05.418Z,100009.06
2023-04-11T00:52:34.682Z,100021.44
2023-04-11T00:55:03.067Z,100012.59
2023-04-11T00:57:30.950Z,100018.25
2023-04-11T00:59:59.169Z,100019.06
2023-04-11T01:02:26.866Z,100012.59
2023-04-11T01:04:55.303Z,100005.03
2023-04-11T01:07:24.716Z,100019.50
2023-04-11T01:09:54.504Z,100008.75
2023-04-11T01:12:22.688Z,100013.75
2023-04-11T01:14:50.042Z,100024.38
2023-04-11T01:17:17.837Z,100020.88
2023-04-11T01:19:45.014Z,100021.56
2023-04-11T01:22:15.342Z,100026.28
2023-04-11T01:24:44.768Z,100014.22
2023-04-11T01:27:12.071Z,100018.38
2023-04-11T01:29:39.374Z,100013.66
2023-04-11T01:32:06.996Z,100014.59
2023-04-11T01:34:36.384Z,100006.25
2023-04-11T01:37:04.282Z,100014.22
2023-04-11T01:39:31.587Z,100016.88
2023-04-11T01:42:02.937Z,100024.00
2023-04-11T01:44:32.457Z,100018.19
2023-04-11T01:47:00.290Z,100009.06
2023-04-11T01:49:27.704Z,100012.56
2023-04-11T01:51:55.006Z,100017.16
2023-04-11T01:54:22.465Z,100014.34
2023-04-11T01:56:50.274Z,100015.97
2023-04-11T01:59:19.649Z,100015.28
2023-04-11T02:01:47.080Z,100009.06
2023-04-11T02:04:14.631Z,100005.78
2023-04-11T02:06:42.119Z,100005.72
2023-04-11T02:09:09.378Z,99999.75
2023-04-11T02:11:36.829Z,100001.88
2023-04-11T02:14:06.384Z,100005.81
2023-04-11T02:16:56.264Z,100000.66
2023-04-11T02:19:26.313Z,99991.75
2023-04-11T02:21:53.588Z,99985.06
2023-04-11T02:24:21.106Z,99985.75
2023-04-11T02:26:48.395Z,99986.56
2023-04-11T02:29:16.103Z,99987.09
2023-04-11T02:31:43.487Z,99992.91
2023-04-11T02:34:12.300Z,99989.44
2023-04-11T02:36:39.610Z,99985.97
2023-04-11T02:39:07.379Z,99985.97
2023-04-11T02:41:34.610Z,99991.16
2023-04-11T02:44:02.008Z,99976.69
2023-04-11T02:46:29.482Z,99981.78
2023-04-11T02:48:57.319Z,99972.53
2023-04-11T02:51:27.283Z,99979.47
2023-04-11T02:53:55.347Z,99989.09
2023-04-11T02:56:22.877Z,99978.09
2023-04-11T02:58:54.987Z,99977.88
2023-04-11T03:01:25.629Z,99981.91
2023-04-11T03:03:55.174Z,99983.53
2023-04-11T03:06:28.296Z,99985.25
2023-04-11T03:08:59.556Z,99981.69
2023-04-11T03:11:27.110Z,99983.41
2023-04-11T03:13:55.033Z,99980.06
2023-04-11T03:16:22.681Z,99985.00
2023-04-11T03:18:50.100Z,99982.59
2023-04-11T03:21:17.528Z,99985.16
2023-04-11T03:23:47.985Z,99980.16
2023-04-11T03:26:16.248Z,99975.06
2023-04-11T03:28:44.810Z,99976.69
2023-04-11T03:31:16.026Z,99975.19
2023-04-11T03:33:45.106Z,99981.91
2023-04-11T03:36:12.530Z,99979.34
2023-04-11T03:38:40.106Z,99980.88
2023-04-11T03:41:09.750Z,99977.50
2023-04-11T03:43:37.392Z,99963.09
2023-04-11T03:46:05.904Z,99978.69
2023-04-11T03:48:43.517Z,99973.44
2023-04-11T03:51:11.123Z,99981.78
2023-04-11T03:53:45.559Z,99979.78
2023-04-11T03:56:31.044Z,99981.03
2023-04-11T03:58:58.852Z,99983.34
2023-04-11T04:01:32.690Z,99985.88
2023-04-11T04:04:05.182Z,99988.69
2023-04-11T04:06:36.800Z,99987.19
2023-04-11T04:09:05.081Z,99992.16
2023-04-11T04:11:45.750Z,99984.50
2023-04-11T04:14:13.747Z,99992.84
2023-04-11T04:16:41.274Z,99992.16
2023-04-11T04:19:08.825Z,99993.47
2023-04-11T04:21:38.192Z,99986.78
2023-04-11T04:24:06.399Z,99989.31
2023-04-11T04:26:50.171Z,99989.06
2023-04-11T04:29:39.604Z,99981.97
2023-04-11T04:32:12.806Z,99979.84
2023-04-11T04:34:55.319Z,99983.91
2023-04-11T04:37:28.212Z,99986.09
2023-04-11T04:40:13.296Z,99978.06
2023-04-11T04:42:58.569Z,99985.66
2023-04-11T04:45:36.941Z,99972.00
2023-04-11T04:48:04.587Z,99977.94
2023-04-11T04:50:32.558Z,99976.69
2023-04-11T04:52:59.808Z,99980.81
2023-04-11T04:55:29.016Z,99972.38
2023-04-11T04:57:57.948Z,99966.88
2023-04-11T05:00:26.193Z,99970.16
2023-04-11T05:02:58.275Z,99964.25
2023-04-11T05:05:30.257Z,99968.84
2023-04-11T05:07:57.673Z,99971.00
2023-04-11T05:10:25.203Z,99973.00
2023-04-11T05:12:53.687Z,99959.72
2023-04-11T05:15:23.606Z,99966.72
2023-04-11T05:17:51.046Z,99958.78
2023-04-11T05:20:18.842Z,99960.50
2023-04-11T05:22:49.538Z,99956.47
2023-04-11T05:25:18.333Z,99962.38
2023-04-11T05:27:46.231Z,99964.63
2023-04-11T05:30:14.337Z,99957.47
2023-04-11T05:32:44.615Z,99960.66
2023-04-11T05:35:12.101Z,99958.78
2023-04-11T05:37:49.500Z,99957.97
2023-04-11T05:40:16.899Z,99951.91
2023-04-11T05:42:44.283Z,99947.59
2023-04-11T05:45:12.060Z,99943.72
2023-04-11T05:47:39.412Z,99953.94
2023-04-11T05:50:10.765Z,99957.16
2023-04-11T05:52:38.224Z,99953.38
2023-04-11T05:55:07.495Z,99953.22
2023-04-11T05:57:34.848Z,99948.00
2023-04-11T06:00:02.387Z,99956.34
2023-04-11T06:02:40.159Z,99961.03
2023-04-11T06:05:11.980Z,99960.78
2023-04-11T06:07:40.084Z,99949.03
2023-04-11T06:10:08.616Z,99957.31
2023-04-11T06:12:36.736Z,99956.03
2023-04-11T06:15:04.937Z,99949.56
2023-04-11T06:17:32.340Z,99959.41
2023-04-11T06:19:59.622Z,99951.53
2023-04-11T06:22:28.244Z,99952.59
2023-04-11T06:24:55.782Z,99949.16
2023-04-11T06:27:23.093Z,99953.34
2023-04-11T06:29:50.647Z,99958.22
2023-04-11T06:32:17.966Z,99956.38
2023-04-11T06:34:45.574Z,99959.41
2023-04-11T06:37:12.878Z,99952.03
2023-04-11T06:39:41.758Z,99953.16
2023-04-11T06:42:09.054Z,99948.81
2023-04-11T06:44:36.366Z,99954.25
2023-04-11T06:47:04.140Z,99949.09
2023-04-11T06:49:31.592Z,99942.50
2023-04-11T06:51:59.646Z,99948.19
2023-04-11T06:54:26.924Z,99949.34
2023-04-11T06:56:57.415Z,99939.09
2023-04-11T06:59:24.971Z,99942.78
2023-04-11T07:01:52.471Z,99942.03
2023-04-11T07:04:20.107Z,99940.72
2023-04-11T07:06:48.087Z,99942.63
2023-04-11T07:09:15.532Z,99933.97
2023-04-11T07:11:43.218Z,99939.75
2023-04-11T07:14:12.023Z,99927.63
2023-04-11T07:16:39.375Z,99935.22
2023-04-11T07:19:06.799Z,99930.41
2023-04-11T07:21:34.183Z,99930.59
2023-04-11T07:24:01.675Z,99923.72
2023-04-11T07:26:32.828Z,99923.28
2023-04-11T07:29:00.966Z,99917.81
2023-04-11T07:31:29.726Z,99915.63
2023-04-11T07:33:57.168Z,99907.59
2023-04-11T07:36:24.703Z,99922.34
2023-04-11T07:38:52.452Z,99909.88
2023-04-11T07:41:19.801Z,99913.91
2023-04-11T07:43:47.209Z,99912.78
2023-04-11T07:46:15.358Z,99906.03
2023-04-11T07:48:44.484Z,99904.41
2023-04-11T07:51:12.222Z,99914.00
2023-04-11T07:53:39.606Z,99903.66
2023-04-11T07:56:07.749Z,99897.22
2023-04-11T07:58:35.081Z,99893.00
2023-04-11T08:01:02.917Z,99890.34
2023-04-11T08:03:30.518Z,99883.22
2023-04-11T08:05:59.718Z,99880.41
2023-04-11T08:08:26.946Z,99876.94
2023-04-11T08:10:54.437Z,99883.94
2023-04-11T08:13:21.756Z,99872.19
2023-04-11T08:15:49.140Z,99878.88
2023-04-11T08:18:16.635Z,99877.50
2023-04-11T08:20:43.998Z,99867.59
2023-04-11T08:23:12.611Z,99870.00
2023-04-11T08:25:40.440Z,99870.47
2023-04-11T08:28:10.107Z,99860.78
2023-04-11T08:30:37.435Z,99863.53
2023-04-11T08:33:04.837Z,99871.75
2023-04-11T08:35:32.274Z,99869.38
2023-04-11T08:37:59.550Z,99861.66
2023-04-11T08:40:28.463Z,99858.34
2023-04-11T08:43:00.261Z,99861.97
2023-04-11T08:45:28.359Z,99852.94
2023-04-11T08:47:55.981Z,99855.56
2023-04-11T08:50:23.370Z,99865.00
2023-04-11T08:52:53.188Z,99851.28
2023-04-11T08:55:20.619Z,99835.59
2023-04-11T08:57:49.345Z,99831.78
2023-04-11T09:00:19.338Z,99838.78
2023-04-11T09:02:58.157Z,99835.78
2023-04-11T09:05:27.038Z,99830.69
2023-04-11T09:07:55.197Z,99835.19
2023-04-11T09:10:23.731Z,99834.94
2023-04-11T09:12:53.239Z,99826.25
2023-04-11T09:15:22.110Z,99829.09
2023-04-11T09:17:50.183Z,99820.44
2023-04-11T09:20:19.454Z,99809.78
2023-04-11T09:22:50.837Z,99818.63
2023-04-11T09:25:18.739Z,99822.94
2023-04-11T09:27:46.208Z,99810.91
2023-04-11T09:30:24.513Z,99806.19
2023-04-11T09:32:56.216Z,99805.88
2023-04-11T09:35:28.121Z,99802.53
2023-04-11T09:37:56.882Z,99799.69
2023-04-11T09:40:25.933Z,99794.38
2023-04-11T09:43:00.962Z,99793.88
2023-04-11T09:45:35.858Z,99779.72
2023-04-11T09:48:08.719Z,99786.41
2023-04-11T09:50:38.661Z,99777.81
2023-04-11T09:53:06.755Z,99783.03
2023-04-11T09:55:34.096Z,99763.78
2023-04-11T09:58:01.588Z,99760.78
2023-04-11T10:00:32.348Z,99768.50
2023-04-11T10:03:00.019Z,99763.63
2023-04-11T10:05:28.872Z,99754.38
2023-04-11T10:08:03.413Z,99751.66
2023-04-11T10:10:31.134Z,99745.06
2023-04-11T10:12:58.695Z,99743.78
2023-04-11T10:15:26.019Z,99740.69
2023-04-11T10:18:10.315Z,99743.44
2023-04-11T10:20:44.995Z,99739.81
2023-04-11T10:23:13.231Z,99730.81
2023-04-11T10:26:00.143Z,99730.44
2023-04-11T10:28:32.776Z,99725.25
2023-04-11T10:31:03.086Z,99726.56
2023-04-11T10:33:32.425Z,99726.81
2023-04-11T10:36:22.650Z,99722.72
2023-04-11T10:38:51.626Z,99733.25
2023-04-11T10:41:26.147Z,99709.28
2023-04-11T10:44:13.892Z,99714.19
2023-04-11T10:46:49.814Z,99708.88
2023-04-11T10:49:36.719Z,99699.28
2023-04-11T10:52:24.810Z,99695.38
2023-04-11T10:54:52.914Z,99694.22
2023-04-11T10:57:21.727Z,99698.75
2023-04-11T11:00:09.602Z,99684.19
2023-04-11T11:02:38.557Z,99685.09
2023-04-11T11:05:21.337Z,99694.28
2023-04-11T11:07:53.386Z,99675.38
2023-04-11T11:10:41.143Z,99673.09
2023-04-11T11:13:09.107Z,99680.50
2023-04-11T11:15:40.293Z,99668.94
2023-04-11T11:18:09.342Z,99659.34
2023-04-11T11:20:38.279Z,99675.09
2023-04-11T11:23:07.926Z,99656.28
2023-04-11T11:25:35.747Z,99659.94
2023-04-11T11:28:04.920Z,99659.25
2023-04-11T11:30:32.846Z,99645.63
2023-04-11T11:33:00.415Z,99645.84
2023-04-11T11:35:29.070Z,99651.91
2023-04-11T11:37:57.772Z,99646.44
2023-04-11T11:40:25.047Z,99634.13
2023-04-11T11:42:52.832Z,99643.03
2023-04-11T11:45:21.816Z,99631.72
2023-04-11T11:47:50.724Z,99636.09
2023-04-11T11:50:26.713Z,99634.84
2023-04-11T11:52:54.420Z,99629.22
2023-04-11T11:55:33.329Z,99625.53
2023-04-11T11:58:02.842Z,99626.66
2023-04-11T12:00:35.393Z,99624.00
2023-04-11T12:03:03.271Z,99635.94
2023-04-11T12:05:32.646Z,99597.41
2023-04-11T12:08:01.326Z,99617.34
2023-04-11T12:10:38.226Z,99614.25
2023-04-11T12:13:16.249Z,99607.66
2023-04-11T12:15:46.731Z,99604.94
2023-04-11T12:18:14.051Z,99604.97
2023-04-11T12:20:41.662Z,99604.75
2023-04-11T12:23:09.039Z,99598.97
2023-04-11T12:25:38.029Z,99604.75
2023-04-11T12:28:06.134Z,99595.41
2023-04-11T12:30:33.506Z,99584.25
2023-04-11T12:33:01.557Z,99596.78
2023-04-11T12:35:29.254Z,99589.34
2023-04-11T12:37:56.715Z,99594.50
2023-04-11T12:40:24.409Z,99593.72
2023-04-11T12:42:57.157Z,99590.50
2023-04-11T12:45:25.174Z,99585.09
2023-04-11T12:47:55.474Z,99574.78
2023-04-11T12:50:24.026Z,99584.09
2023-04-11T12:52:52.012Z,99575.22
2023-04-11T12:55:19.596Z,99557.00
2023-04-11T12:57:47.007Z,99567.28
2023-04-11T13:00:17.548Z,99569.13
2023-04-11T13:02:45.723Z,99554.13
2023-04-11T13:05:18.182Z,99559.19
2023-04-11T13:07:46.257Z,99557.03
2023-04-11T13:10:14.483Z,99558.25
2023-04-11T13:12:44.874Z,99557.31
2023-04-11T13:15:13.697Z,99552.72
2023-04-11T13:17:42.643Z,99554.59
2023-04-11T13:20:11.329Z,99557.91
2023-04-11T13:22:39.019Z,99546.91
2023-04-11T13:25:07.432Z,99550.94
2023-04-11T13:27:34.893Z,99548.25
2023-04-11T13:30:04.910Z,99548.94
2023-04-11T13:32:32.617Z,99542.03
2023-04-11T13:35:01.448Z,99541.72
2023-04-11T13:37:28.972Z,99542.56
2023-04-11T13:39:59.005Z,99539.41
2023-04-11T13:42:26.594Z,99550.56
2023-04-11T13:44:54.389Z,99547.03
2023-04-11T13:47:21.937Z,99543.63
2023-04-11T13:49:49.217Z,99542.41
2023-04-11T13:52:17.830Z,99549.44
2023-04-11T13:54:45.114Z,99549.97
2023-04-11T13:57:12.629Z,99554.75
2023-04-11T13:59:42.305Z,99540.22
2023-04-11T14:02:09.771Z,99531.66
2023-04-11T14:04:37.100Z,99537.06
2023-04-11T14:07:04.357Z,99536.19
2023-04-11T14:09:33.021Z,99533.63
2023-04-11T14:12:01.496Z,99529.19
2023-04-11T14:14:28.851Z,99529.69
2023-04-11T14:16:56.362Z,99532.56
2023-04-11T14:19:25.000Z,99520.84
2023-04-11T14:21:52.435Z,99519.72
2023-04-11T14:24:22.301Z,99523.38
2023-04-11T14:26:51.220Z,99516.72
2023-04-11T14:29:19.850Z,99518.25
2023-04-11T14:31:48.444Z,99525.00
2023-04-11T14:34:16.638Z,99511.78
2023-04-11T14:36:43.894Z,99520.97
2023-04-11T14:39:11.179Z,99516.47
2023-04-11T14:41:38.475Z,99514.16
2023-04-11T14:44:07.311Z,99510.56
2023-04-11T14:46:35.680Z,99507.16
2023-04-11T14:49:03.645Z,99512.47
2023-04-11T14:51:31.364Z,99509.38
2023-04-11T14:53:59.985Z,99506.28
2023-04-11T14:56:27.354Z,99500.97
2023-04-11T14:58:54.955Z,99501.66
2023-04-11T15:01:24.534Z,99502.63
2023-04-11T15:03:52.223Z,99510.28
2023-04-11T15:06:19.640Z,99496.03
2023-04-11T15:08:48.479Z,99500.84
2023-04-11T15:11:16.396Z,99511.13
2023-04-11T15:13:47.978Z,99507.91
2023-04-11T15:16:15.363Z,99510.28
2023-04-11T15:18:44.240Z,99501.72
2023-04-11T15:21:11.538Z,99508.09
2023-04-11T15:23:39.052Z,99505.47
2023-04-11T15:26:08.317Z,99503.66
2023-04-11T15:28:37.303Z,99502.44
2023-04-11T15:31:06.285Z,99501.44
2023-04-11T15:33:34.172Z,99499.63
2023-04-11T15:36:03.269Z,99498.56
2023-04-11T15:38:30.834Z,99494.56
2023-04-11T15:41:00.011Z,99496.50
2023-04-11T15:43:27.675Z,99489.53
2023-04-11T15:45:55.071Z,99498.66
2023-04-11T15:48:25.582Z,99502.78
2023-04-11T15:50:52.941Z,99502.97
2023-04-11T15:53:21.891Z,99497.22
2023-04-11T15:55:49.520Z,99491.41
2023-04-11T15:58:17.095Z,99498.56
2023-04-11T16:00:44.893Z,99496.75
2023-04-11T16:03:12.420Z,99492.50
2023-04-11T16:05:43.203Z,99501.63
2023-04-11T16:08:10.804Z,99499.03
2023-04-11T16:10:39.605Z,99505.72
2023-04-11T16:13:06.981Z,99496.78
2023-04-11T16:15:34.409Z,99490.94
2023-04-11T16:18:02.014Z,99510.00
2023-04-11T16:20:29.351Z,99508.91
2023-04-11T16:22:56.783Z,99504.59
2023-04-11T16:25:24.153Z,99509.81
2023-04-11T16:27:53.108Z,99508.34
2023-04-11T16:30:20.595Z,99511.47
2023-04-11T16:32:47.905Z,99502.84
2023-04-11T16:35:15.218Z,99507.75
2023-04-11T16:37:42.613Z,99503.69
2023-04-11T16:40:13.154Z,99517.47
2023-04-11T16:42:40.589Z,99514.22
2023-04-11T16:45:10.941Z,99516.09
2023-04-11T16:47:41.181Z,99515.03
2023-04-11T16:50:09.543Z,99516.28
2023-04-11T16:52:36.891Z,99511.09
2023-04-11T16:55:05.006Z,99523.50
2023-04-11T16:57:33.499Z,99520.19
2023-04-11T17:00:07.219Z,99527.75
2023-04-11T17:02:36.129Z,99517.19
2023-04-11T17:05:04.294Z,99514.50
2023-04-11T17:07:33.405Z,99514.06
2023-04-11T17:10:00.887Z,99524.97
2023-04-11T17:12:28.408Z,99528.72
2023-04-11T17:14:56.199Z,99520.09
2023-04-11T17:17:23.629Z,99529.78
2023-04-11T17:19:52.581Z,99521.78
2023-04-11T17:22:20.167Z,99527.19
2023-04-11T17:24:47.463Z,99534.78
2023-04-11T17:27:14.916Z,99537.78
2023-04-11T17:29:42.384Z,99528.97
2023-04-11T17:32:09.582Z,99530.50
2023-04-11T17:34:37.081Z,99534.06
2023-04-11T17:37:06.642Z,99528.66
2023-04-11T17:39:33.885Z,99534.50
2023-04-11T17:42:01.560Z,99526.81
2023-04-11T17:44:28.884Z,99521.41
2023-04-11T17:46:56.661Z,99532.94
2023-04-11T17:49:25.087Z,99530.38
2023-04-11T17:51:59.049Z,99527.34
2023-04-11T17:54:28.710Z,99523.69
2023-04-11T17:56:56.505Z,99525.81
2023-04-11T17:59:25.532Z,99523.75
2023-04-11T18:01:56.218Z,99525.06
2023-04-11T18:04:23.985Z,99520.72
2023-04-11T18:06:51.489Z,99521.44
2023-04-11T18:09:18.755Z,99519.03
2023-04-11T18:11:47.455Z,99516.16
2023-04-11T18:14:14.883Z,99524.22
2023-04-11T18:16:42.145Z,99516.50
2023-04-11T18:19:09.560Z,99523.56
2023-04-11T18:21:38.725Z,99526.28
2023-04-11T18:24:06.755Z,99515.72
2023-04-11T18:26:35.550Z,99514.59
2023-04-11T18:29:04.535Z,99520.53
2023-04-11T18:31:35.201Z,99522.97
2023-04-11T18:34:03.548Z,99524.28
2023-04-11T18:36:31.024Z,99529.13
2023-04-11T18:38:58.405Z,99526.25
2023-04-11T18:41:26.113Z,99517.91
2023-04-11T18:43:53.493Z,99514.06
2023-04-11T18:46:22.575Z,99515.03
2023-04-11T18:48:50.013Z,99521.31
2023-04-11T18:51:17.545Z,99506.41
2023-04-11T18:53:45.273Z,99515.88
2023-04-11T18:56:12.505Z,99516.84
2023-04-11T18:58:45.552Z,99512.06
2023-04-11T19:01:16.921Z,99505.16
2023-04-11T19:03:46.827Z,99509.03
2023-04-11T19:06:14.325Z,99507.59
2023-04-11T19:08:41.737Z,99507.13
2023-04-11T19:11:09.067Z,99512.91
2023-04-11T19:13:36.744Z,99506.19
2023-04-11T19:16:04.510Z,99515.53
2023-04-11T19:18:31.986Z,99501.59
2023-04-11T19:21:01.452Z,99501.59
2023-04-11T19:23:28.991Z,99508.63
2023-04-11T19:25:56.827Z,99505.59
2023-04-11T19:28:24.147Z,99497.44
2023-04-11T19:30:51.489Z,99501.13
2023-04-11T19:33:18.931Z,99498.22
2023-04-11T19:35:46.606Z,99503.22
2023-04-11T19:38:15.413Z,99504.78
2023-04-11T19:40:42.796Z,99510.09
2023-04-11T19:43:10.099Z,99495.19
2023-04-11T19:45:37.430Z,99502.25
2023-04-11T19:48:05.216Z,99507.19
2023-04-11T19:50:32.736Z,99503.50
2023-04-11T19:53:01.680Z,99511.03
2023-04-11T19:55:33.240Z,99512.31
2023-04-11T19:58:03.100Z,99509.44
2023-04-11T20:00:36.295Z,99508.13
2023-04-11T20:03:10.625Z,99515.50
2023-04-11T20:05:39.251Z,99507.97
2023-04-11T20:08:10.929Z,99513.25
2023-04-11T20:10:41.971Z,99508.78
2023-04-11T20:13:12.172Z,99510.22
2023-04-11T20:15:41.864Z,99516.47
2023-04-11T20:18:12.008Z,99516.47
2023-04-11T20:20:39.317Z,99514.19
2023-04-11T20:23:07.322Z,99521.53
2023-04-11T20:25:35.132Z,99522.19
2023-04-11T20:28:04.031Z,99523.13
2023-04-11T20:30:32.520Z,99513.38
2023-04-11T20:33:00.076Z,99519.28
2023-04-11T20:35:27.717Z,99524.84
2023-04-11T20:37:56.233Z,99524.50
2023-04-11T20:40:24.012Z,99524.22
2023-04-11T20:42:51.228Z,99525.97
2023-04-11T20:45:25.894Z,99532.31
2023-04-11T20:47:53.671Z,99530.22
2023-04-11T20:50:21.652Z,99527.34
2023-04-11T20:52:53.178Z,99529.72
2023-04-11T20:55:21.119Z,99528.13
2023-04-11T20:57:48.689Z,99534.19
2023-04-11T21:00:17.609Z,99526.00
2023-04-11T21:02:49.957Z,99520.41
2023-04-11T21:05:21.472Z,99525.22
2023-04-11T21:07:50.218Z,99519.78
2023-04-11T21:10:19.340Z,99525.69
2023-04-11T21:12:51.931Z,99525.88
2023-04-11T21:15:20.135Z,99520.09
2023-04-11T21:17:50.391Z,99526.97
2023-04-11T21:20:18.640Z,99523.91
2023-04-11T21:22:47.165Z,99527.75
2023-04-11T21:25:15.915Z,99527.22
2023-04-11T21:27:43.352Z,99529.44
2023-04-11T21:30:11.577Z,99528.72
2023-04-11T21:32:39.709Z,99532.63
2023-04-11T21:35:09.944Z,99519.69
2023-04-11T21:37:37.403Z,99537.16
2023-04-11T21:40:05.681Z,99528.56
2023-04-11T21:42:33.071Z,99528.94
2023-04-11T21:45:00.543Z,99534.91
2023-04-11T21:47:27.861Z,99533.75
2023-04-11T21:49:55.061Z,99538.31
2023-04-11T21:52:23.739Z,99532.28
2023-04-11T21:54:51.098Z,99541.25
2023-04-11T21:57:18.330Z,99540.97
2023-04-11T21:59:46.859Z,99531.41
2023-04-11T22:02:14.644Z,99541.97
2023-04-11T22:04:55.794Z,99547.88
2023-04-11T22:07:50.305Z,99542.59
2023-04-11T22:10:23.344Z,99540.88
2023-04-11T22:12:54.041Z,99545.47
2023-04-11T22:15:21.680Z,99541.47
2023-04-11T22:17:51.268Z,99541.59
2023-04-11T22:20:20.074Z,99536.38
2023-04-11T22:22:48.896Z,99534.31
2023-04-11T22:25:18.414Z,99532.56
2023-04-11T22:27:45.817Z,99533.88
2023-04-11T22:30:14.869Z,99526.53
2023-04-11T22:32:42.340Z,99528.53
2023-04-11T22:35:11.106Z,99529.91
2023-04-11T22:37:38.367Z,99527.28
2023-04-11T22:40:11.565Z,99517.38
2023-04-11T22:42:40.482Z,99523.69
2023-04-11T22:45:08.771Z,99530.03
2023-04-11T22:47:38.210Z,99516.09
2023-04-11T22:50:06.270Z,99523.63
2023-04-11T22:52:35.623Z,99518.81
2023-04-11T22:55:04.761Z,99511.59
2023-04-11T22:57:35.157Z,99519.25
2023-04-11T23:00:04.756Z,99523.66
2023-04-11T23:02:32.351Z,99523.44
2023-04-11T23:05:02.276Z,99513.44
2023-04-11T23:07:32.907Z,99512.66
2023-04-11T23:10:01.227Z,99517.38
2023-04-11T23:12:30.094Z,99505.19
2023-04-11T23:15:02.421Z,99510.97
2023-04-11T23:17:30.423Z,99516.06
2023-04-11T23:19:59.460Z,99511.09
2023-04-11T23:22:27.613Z,99508.69
2023-04-11T23:24:55.035Z,99512.84
2023-04-11T23:27:22.973Z,99514.88
2023-04-11T23:29:50.736Z,99506.69
2023-04-11T23:32:19.871Z,99509.66
2023-04-11T23:34:47.151Z,99510.31
2023-04-11T23:37:14.718Z,99513.13
2023-04-11T23:39:42.239Z,99520.91
2023-04-11T23:42:09.558Z,99518.38
2023-04-11T23:44:36.770Z,99515.13
2023-04-11T23:47:03.956Z,99512.75
2023-04-11T23:49:32.689Z,99523.34
2023-04-11T23:51:59.863Z,99516.91
2023-04-11T23:54:30.451Z,99520.69
2023-04-11T23:56:58.172Z,99521.63
2023-04-11T23:59:25.475Z,99517.50
